Terminal Aerodrome Forecast
Issued by NWS

Home | Current Version | Previous Version | Text Only | Print | Product List | Glossary On
Versions: 1 2 3 4 5 6 7 8 9 10 11 12 13
794
FTUS42 KTBW 120521
TAFPIE
TAF
KPIE 120521Z 1206/1306 VRB03KT P6SM FEW020 FEW250
     FM121300 26008KT P6SM FEW020 SCT250
     FM121600 27012G17KT P6SM SCT035 BKN250
     FM122300 31015G21KT P6SM FEW250
     FM130500 35011KT P6SM FEW250=

USA.gov is the U.S. government's official web portal to all federal, state and local government web resources and services.